Time;durP1;ratioP1;P1;durP2;ratioP2;P2;SDS_P1;SDS_P2;PMS_P1;PMS_P2;Temp;Humidity;BMP_temperature;BMP_pressure;BME280_temperature;BME280_humidity;BME280_pressure;Samples;Min_cycle;Max_cycle;Signal;HPM_P1;HPM_P2
2024/03/08 15:54:39;;;;;;;28.65;15.68;;;;;;;5.60;100.00;97866.06;5067501;23;20038;-75
2024/03/08 15:57:11;;;;;;;29.40;14.98;;;;;;;5.61;100.00;97873.06;4969978;28;20049;-77
2024/03/08 15:59:37;;;;;;;29.83;15.77;;;;;;;5.62;100.00;97873.03;4940749;28;20067;-77
2024/03/08 16:02:03;;;;;;;30.30;14.43;;;;;;;5.39;100.00;97847.34;4957835;28;20743;-76
2024/03/08 16:04:29;;;;;;;31.98;12.88;;;;;;;5.43;100.00;97874.63;4947003;28;20118;-75
2024/03/08 16:06:55;;;;;;;23.15;11.60;;;;;;;5.26;100.00;97866.41;4941794;28;20118;-76
2024/03/08 16:09:21;;;;;;;21.17;11.05;;;;;;;5.21;100.00;97865.69;4941054;28;20482;-78
2024/03/08 16:11:48;;;;;;;27.52;13.05;;;;;;;5.17;100.00;97866.75;4964390;28;20041;-75
2024/03/08 16:14:16;;;;;;;25.13;12.45;;;;;;;5.11;100.00;97861.63;4946481;28;20109;-74
2024/03/08 16:16:41;;;;;;;23.73;11.30;;;;;;;5.25;100.00;97864.69;4959246;28;20073;-76
2024/03/08 16:19:07;;;;;;;25.05;12.38;;;;;;;5.24;100.00;97874.41;4947539;28;20070;-75
2024/03/08 16:21:36;;;;;;;33.80;14.02;;;;;;;5.05;100.00;97868.03;4949356;28;20027;-74
2024/03/08 16:24:03;;;;;;;36.83;15.95;;;;;;;5.06;100.00;97866.25;4963345;28;20110;-77
2024/03/08 16:26:30;;;;;;;40.55;16.88;;;;;;;5.18;100.00;97868.47;4947498;28;20105;-76
2024/03/08 16:28:56;;;;;;;32.03;14.95;;;;;;;5.16;100.00;97871.19;4947481;28;20027;-78
2024/03/08 16:31:22;;;;;;;35.97;15.80;;;;;;;5.16;100.00;97870.31;4966135;28;20024;-76
2024/03/08 16:33:48;;;;;;;29.17;14.82;;;;;;;5.02;100.00;97872.56;4968873;28;20125;-76
2024/03/08 16:36:15;;;;;;;28.13;14.65;;;;;;;5.06;100.00;97879.50;4940905;28;20045;-76
2024/03/08 16:38:44;;;;;;;38.47;16.05;;;;;;;5.01;100.00;97884.09;4947214;28;20405;-76
2024/03/08 16:41:11;;;;;;;39.83;17.60;;;;;;;5.02;100.00;97880.50;4949011;28;20426;-75
2024/03/08 16:43:39;;;;;;;33.67;16.05;;;;;;;5.00;100.00;97879.72;4934670;29;20059;-75
2024/03/08 16:46:04;;;;;;;40.03;16.15;;;;;;;4.99;100.00;97889.44;4941066;28;20102;-76
2024/03/08 16:48:31;;;;;;;31.48;14.85;;;;;;;5.11;100.00;97890.78;4954116;28;20482;-82
2024/03/08 16:50:56;;;;;;;32.80;14.45;;;;;;;5.14;100.00;97893.34;4951817;28;20027;-80
2024/03/08 16:53:22;;;;;;;31.98;14.57;;;;;;;5.08;100.00;97889.13;4966014;28;20053;-76
2024/03/08 16:55:51;;;;;;;31.05;15.18;;;;;;;5.02;100.00;97889.34;4948735;28;20023;-77
2024/03/08 16:58:35;;;;;;;33.63;15.48;;;;;;;5.16;100.00;97897.69;4911618;29;20039;-81
2024/03/08 17:01:01;;;;;;;40.47;16.17;;;;;;;5.18;100.00;97892.31;4896387;29;20595;-77
2024/03/08 17:03:27;;;;;;;39.67;18.40;;;;;;;5.31;100.00;97901.59;4896011;29;20126;-75
2024/03/08 17:05:55;;;;;;;40.80;17.45;;;;;;;5.27;100.00;97899.94;4877933;29;20042;-75
2024/03/08 17:08:21;;;;;;;39.17;16.73;;;;;;;5.20;100.00;97898.47;4896062;29;20083;-77
2024/03/08 17:10:47;;;;;;;91.50;43.83;;;;;;;5.22;100.00;97901.91;4896692;29;20036;-77
2024/03/08 17:13:14;;;;;;;125.07;64.28;;;;;;;5.18;100.00;97890.53;4895977;29;20044;-77
2024/03/08 17:15:42;;;;;;;41.67;17.13;;;;;;;5.28;100.00;97907.00;4895715;29;20492;-76
2024/03/08 17:18:08;;;;;;;40.25;18.58;;;;;;;5.30;100.00;97907.81;4879662;29;20596;-73
2024/03/08 17:20:38;;;;;;;31.13;15.20;;;;;;;5.27;100.00;97900.81;4896248;29;20114;-75
2024/03/08 17:23:08;;;;;;;46.03;16.80;;;;;;;5.26;100.00;97903.53;4878385;29;20173;-76
2024/03/08 17:25:35;;;;;;;58.65;24.42;;;;;;;5.25;100.00;97893.84;4895219;29;20673;-75
2024/03/08 17:28:02;;;;;;;61.83;24.95;;;;;;;5.36;100.00;97897.84;4877124;29;20035;-76
2024/03/08 17:30:29;;;;;;;48.10;21.77;;;;;;;5.34;100.00;97901.47;4915359;29;20043;-76
2024/03/08 17:33:09;;;;;;;40.95;18.05;;;;;;;5.33;100.00;97915.66;4913074;29;20039;-77
2024/03/08 17:35:38;;;;;;;46.30;21.77;;;;;;;5.34;100.00;97917.38;4923691;28;20035;-75
2024/03/08 17:38:08;;;;;;;60.25;25.58;;;;;;;5.28;100.00;97917.59;4949787;28;20033;-75
2024/03/08 17:40:37;;;;;;;53.05;26.35;;;;;;;5.26;100.00;97925.59;4961239;28;20022;-75
2024/03/08 17:43:05;;;;;;;61.10;26.33;;;;;;;5.24;100.00;97926.56;4948590;28;20037;-76
2024/03/08 17:45:32;;;;;;;38.58;19.30;;;;;;;5.18;100.00;97922.34;4943018;28;20125;-75
2024/03/08 17:47:58;;;;;;;45.10;19.35;;;;;;;5.18;100.00;97921.50;4941695;29;20569;-75
2024/03/08 17:50:24;;;;;;;76.95;29.98;;;;;;;5.22;100.00;97923.13;4937622;28;20027;-75
2024/03/08 17:52:51;;;;;;;104.40;35.83;;;;;;;5.23;100.00;97930.16;4954760;28;20035;-76
2024/03/08 17:55:18;;;;;;;45.92;22.65;;;;;;;4.89;100.00;97912.75;4939939;28;20415;-75
2024/03/08 17:57:48;;;;;;;58.85;22.30;;;;;;;5.07;100.00;97921.00;4942995;28;20107;-74
2024/03/08 18:00:25;;;;;;;47.95;20.00;;;;;;;5.08;100.00;97922.72;4939274;28;20039;-76
2024/03/08 18:02:51;;;;;;;35.88;18.42;;;;;;;4.98;100.00;97918.66;4961786;28;20038;-76
2024/03/08 18:05:24;;;;;;;36.08;17.05;;;;;;;5.03;100.00;97924.66;4963258;28;20366;-75
2024/03/08 18:07:53;;;;;;;40.28;17.63;;;;;;;5.07;100.00;97923.66;4957887;28;20058;-75
2024/03/08 18:10:20;;;;;;;40.95;18.98;;;;;;;5.14;100.00;97919.84;4947174;28;20045;-75
2024/03/08 18:12:59;;;;;;;46.17;19.42;;;;;;;5.18;100.00;97917.06;4943021;28;20042;-77
2024/03/08 18:15:26;;;;;;;36.88;15.10;;;;;;;5.20;100.00;97914.38;4946186;28;20038;-76
2024/03/08 18:17:59;;;;;;;34.15;13.57;;;;;;;5.24;100.00;97926.56;4965775;28;20061;-76
2024/03/08 18:20:31;;;;;;;35.00;15.20;;;;;;;5.18;100.00;97916.19;4960487;28;20039;-75
2024/03/08 18:23:01;;;;;;;38.28;16.88;;;;;;;5.15;100.00;97905.69;4942516;28;20131;-75
2024/03/08 18:25:28;;;;;;;35.58;16.15;;;;;;;5.19;100.00;97896.72;4944984;28;20039;-75
2024/03/08 18:27:54;;;;;;;44.35;19.08;;;;;;;5.29;100.00;97916.69;4952309;28;20034;-75
2024/03/08 18:30:20;;;;;;;66.93;27.77;;;;;;;5.33;100.00;97926.25;4951233;28;20026;-74
2024/03/08 18:32:47;;;;;;;34.95;15.40;;;;;;;5.38;100.00;97921.69;4943642;28;20110;-74
2024/03/08 18:35:15;;;;;;;35.88;16.15;;;;;;;5.29;100.00;97914.03;4967237;28;20043;-74
2024/03/08 18:37:42;;;;;;;31.05;14.38;;;;;;;5.23;100.00;97919.56;4963277;28;20027;-73
2024/03/08 18:40:19;;;;;;;49.67;18.30;;;;;;;5.12;100.00;97913.75;4961850;28;20035;-75
2024/03/08 18:42:45;;;;;;;38.40;14.68;;;;;;;5.07;100.00;97905.09;4954453;28;20125;-75
2024/03/08 18:45:12;;;;;;;32.70;15.52;;;;;;;5.02;100.00;97910.53;4943337;28;20118;-75
2024/03/08 18:47:43;;;;;;;32.38;14.80;;;;;;;4.88;100.00;97904.84;4938810;28;20038;-75
2024/03/08 18:50:13;;;;;;;39.17;13.57;;;;;;;4.74;100.00;97905.31;4943163;28;20367;-75
2024/03/08 18:52:42;;;;;;;49.80;15.30;;;;;;;4.84;100.00;97911.16;4963808;28;20024;-76
2024/03/08 18:55:23;;;;;;;31.75;15.73;;;;;;;4.93;100.00;97911.72;4933267;28;20061;-77
2024/03/08 18:57:52;;;;;;;38.90;15.20;;;;;;;4.98;100.00;97918.66;4950755;28;20139;-76
2024/03/08 19:00:26;;;;;;;27.40;13.23;;;;;;;5.10;100.00;97918.25;4940570;29;20094;-77
2024/03/08 19:02:59;;;;;;;28.52;13.88;;;;;;;5.17;100.00;97915.31;4945332;28;20035;-75
2024/03/08 19:05:25;;;;;;;36.83;17.70;;;;;;;5.24;100.00;97911.53;4952838;28;20091;-76
2024/03/08 19:07:52;;;;;;;23.65;11.90;;;;;;;5.22;100.00;97902.78;4967954;28;20134;-75
2024/03/08 19:10:21;;;;;;;29.30;13.57;;;;;;;5.16;100.00;97907.44;4953169;28;20105;-76
2024/03/08 19:12:51;;;;;;;34.53;15.25;;;;;;;5.13;100.00;97910.19;4966979;28;20023;-77
2024/03/08 19:15:19;;;;;;;31.35;14.27;;;;;;;5.17;100.00;97911.81;4942368;28;20487;-78
2024/03/08 19:17:47;;;;;;;34.00;16.63;;;;;;;5.24;100.00;97905.38;4953349;28;20039;-76
2024/03/08 19:20:17;;;;;;;71.72;33.50;;;;;;;5.26;100.00;97904.38;4944067;29;20031;-75
2024/03/08 19:22:44;;;;;;;42.88;19.73;;;;;;;5.24;100.00;97914.19;4961690;28;20030;-76
2024/03/08 19:25:10;;;;;;;27.75;12.23;;;;;;;5.12;100.00;97905.78;4942856;28;20419;-77
2024/03/08 19:27:36;;;;;;;29.73;12.98;;;;;;;5.08;100.00;97898.84;4944426;28;20027;-76
2024/03/08 19:30:04;;;;;;;28.25;12.48;;;;;;;5.13;100.00;97910.19;4941689;29;20537;-78
2024/03/08 19:32:33;;;;;;;25.73;11.63;;;;;;;5.08;100.00;97906.81;4963662;28;20036;-75
2024/03/08 19:35:00;;;;;;;23.13;11.38;;;;;;;5.04;100.00;97902.56;4962253;28;20113;-76
2024/03/08 19:37:26;;;;;;;30.50;12.60;;;;;;;5.14;100.00;97918.06;4967341;28;20023;-75
2024/03/08 19:39:52;;;;;;;29.45;13.20;;;;;;;5.15;100.00;97911.00;4959537;28;20122;-75
2024/03/08 19:42:19;;;;;;;26.67;12.88;;;;;;;5.12;100.00;97911.09;4964334;28;20121;-75
2024/03/08 19:44:47;;;;;;;28.02;13.30;;;;;;;5.19;100.00;97902.88;4943329;29;20031;-75
2024/03/08 19:47:15;;;;;;;27.40;12.52;;;;;;;5.15;100.00;97903.91;4956829;28;20035;-75
2024/03/08 19:49:42;;;;;;;27.83;13.20;;;;;;;5.19;100.00;97907.31;4944814;28;20050;-75
2024/03/08 19:52:09;;;;;;;130.80;62.00;;;;;;;5.11;100.00;97893.44;4949884;29;20498;-77
2024/03/08 19:54:35;;;;;;;33.17;13.52;;;;;;;5.18;100.00;97894.97;4943573;28;20054;-78
2024/03/08 19:57:06;;;;;;;28.88;14.32;;;;;;;5.27;100.00;97906.13;4962652;28;20090;-78
2024/03/08 19:59:41;;;;;;;27.70;12.20;;;;;;;5.23;100.00;97903.66;4970815;28;20375;-77
2024/03/08 20:02:08;;;;;;;32.17;15.20;;;;;;;5.18;100.00;97895.84;4944945;28;20031;-77
2024/03/08 20:04:34;;;;;;;32.40;13.05;;;;;;;5.24;100.00;97910.66;4957789;28;20026;-77
2024/03/08 20:06:59;;;;;;;25.52;11.68;;;;;;;5.24;100.00;97908.88;4938072;29;20411;-75
2024/03/08 20:09:25;;;;;;;23.83;11.25;;;;;;;5.27;100.00;97905.25;4941748;29;20035;-78
2024/03/08 20:11:51;;;;;;;34.25;12.00;;;;;;;5.20;100.00;97903.75;4940524;28;20023;-77
2024/03/08 20:14:17;;;;;;;29.58;13.68;;;;;;;5.13;100.00;97911.06;4975021;28;20121;-77
2024/03/08 20:16:42;;;;;;;28.23;13.80;;;;;;;5.04;100.00;97916.69;4974129;28;20166;-76
2024/03/08 20:19:11;;;;;;;34.65;13.88;;;;;;;5.02;100.00;97912.31;4948295;29;20410;-76
2024/03/08 20:21:36;;;;;;;27.52;12.93;;;;;;;5.05;100.00;97910.44;4948868;28;20418;-77
2024/03/08 20:24:02;;;;;;;32.38;15.02;;;;;;;5.04;100.00;97913.16;4970322;28;20035;-75
2024/03/08 20:26:28;;;;;;;36.17;15.02;;;;;;;5.07;100.00;97928.97;4947081;28;20197;-75
2024/03/08 20:28:54;;;;;;;30.98;13.00;;;;;;;5.01;100.00;97923.88;4962811;28;20513;-77
2024/03/08 20:31:19;;;;;;;30.48;13.13;;;;;;;4.98;100.00;97918.66;4954577;28;20023;-76
2024/03/08 20:33:46;;;;;;;27.25;12.48;;;;;;;4.93;100.00;97917.03;4956689;28;20419;-75
2024/03/08 20:36:12;;;;;;;30.45;13.48;;;;;;;4.99;100.00;97920.38;4952870;28;20037;-75
2024/03/08 20:38:39;;;;;;;27.13;11.77;;;;;;;4.92;100.00;97915.28;4973646;28;20023;-77
2024/03/08 20:41:08;;;;;;;33.60;13.20;;;;;;;4.82;100.00;97910.38;4962384;28;20026;-75
2024/03/08 20:43:38;;;;;;;30.40;13.85;;;;;;;4.79;100.00;97900.72;4952206;28;20039;-76
2024/03/08 20:46:06;;;;;;;25.95;11.70;;;;;;;4.87;100.00;97897.81;4968106;28;20038;-77
2024/03/08 20:48:35;;;;;;;27.63;12.35;;;;;;;4.94;100.00;97902.00;4956250;28;20044;-77
2024/03/08 20:51:01;;;;;;;31.58;12.57;;;;;;;5.02;100.00;97907.03;4959412;28;20031;-76
2024/03/08 20:53:30;;;;;;;28.48;12.80;;;;;;;5.02;100.00;97905.25;4961860;28;20460;-77
2024/03/08 20:55:56;;;;;;;25.67;12.02;;;;;;;5.07;100.00;97910.41;4952115;28;20141;-75
2024/03/08 20:58:22;;;;;;;21.13;11.07;;;;;;;5.04;100.00;97895.47;4970446;28;20031;-75
2024/03/08 21:00:56;;;;;;;28.50;11.95;;;;;;;5.14;100.00;97909.25;4964894;28;20411;-76
2024/03/08 21:03:23;;;;;;;25.80;12.43;;;;;;;5.06;100.00;97912.19;4968441;28;20121;-76
2024/03/08 21:05:53;;;;;;;27.42;12.63;;;;;;;5.06;100.00;97900.69;4950806;28;20041;-76
2024/03/08 21:08:23;;;;;;;28.98;13.80;;;;;;;5.14;100.00;97903.94;4946682;28;20041;-77
2024/03/08 21:10:53;;;;;;;39.45;15.07;;;;;;;5.00;100.00;97895.63;4946527;29;20058;-76
2024/03/08 21:13:21;;;;;;;38.67;17.08;;;;;;;4.97;100.00;97906.31;4940181;29;20069;-77
2024/03/08 21:15:47;;;;;;;41.28;17.45;;;;;;;5.02;100.00;97907.03;4948190;29;20082;-77
2024/03/08 21:18:13;;;;;;;31.17;14.30;;;;;;;5.04;100.00;97913.16;4950890;28;20037;-77
2024/03/08 21:20:40;;;;;;;33.38;15.60;;;;;;;4.98;100.00;97908.06;4945613;28;20038;-76
2024/03/08 21:23:06;;;;;;;30.40;14.32;;;;;;;4.78;100.00;97901.66;4956721;28;20034;-76
2024/03/08 21:25:33;;;;;;;28.63;13.55;;;;;;;4.80;100.00;97894.50;4953637;28;20101;-76
2024/03/08 21:28:03;;;;;;;24.17;12.00;;;;;;;4.88;100.00;97899.56;4956943;28;20486;-76
2024/03/08 21:30:30;;;;;;;26.95;12.85;;;;;;;4.85;100.00;97915.56;4941154;29;20658;-75
2024/03/08 21:32:58;;;;;;;22.85;10.90;;;;;;;4.90;100.00;97924.22;4967689;28;20011;-76
2024/03/08 21:35:24;;;;;;;22.67;11.35;;;;;;;4.82;100.00;97919.19;4950610;28;20035;-76
2024/03/08 21:37:50;;;;;;;23.25;11.40;;;;;;;4.77;100.00;97918.44;4942882;29;20032;-76
2024/03/08 21:40:29;;;;;;;26.95;12.10;;;;;;;4.70;100.00;97913.41;4935309;28;20469;-76
2024/03/08 21:42:56;;;;;;;25.48;11.82;;;;;;;4.68;100.00;97894.03;4948098;28;20032;-76
2024/03/08 21:45:30;;;;;;;24.45;12.27;;;;;;;4.78;100.00;97906.06;4944943;29;20506;-75
2024/03/08 21:47:59;;;;;;;33.38;13.60;;;;;;;4.73;100.00;97898.28;4941353;29;20035;-74
2024/03/08 21:50:27;;;;;;;27.70;13.30;;;;;;;4.81;100.00;97901.53;4934759;29;20114;-77
2024/03/08 21:52:53;;;;;;;28.88;13.50;;;;;;;4.95;100.00;97903.75;4946731;28;20026;-77
2024/03/08 21:55:18;;;;;;;27.77;13.50;;;;;;;4.93;100.00;97895.81;4958519;28;20138;-77
2024/03/08 21:57:45;;;;;;;33.70;15.88;;;;;;;4.97;100.00;97895.72;4945091;28;20031;-76
2024/03/08 22:00:12;;;;;;;27.85;13.40;;;;;;;5.03;100.00;97890.22;4945017;28;20026;-74
2024/03/08 22:02:39;;;;;;;30.60;13.95;;;;;;;4.99;100.00;97885.91;4950648;28;20121;-77
2024/03/08 22:05:07;;;;;;;31.00;13.50;;;;;;;4.97;100.00;97879.81;4961836;28;20038;-77
2024/03/08 22:07:35;;;;;;;29.10;13.02;;;;;;;4.98;100.00;97882.44;4936744;29;20031;-77
2024/03/08 22:10:04;;;;;;;27.40;12.93;;;;;;;4.93;100.00;97879.91;4959224;28;20486;-77
2024/03/08 22:12:31;;;;;;;30.58;13.18;;;;;;;4.96;100.00;97864.81;4936525;29;20055;-76
2024/03/08 22:14:57;;;;;;;32.88;15.32;;;;;;;4.98;100.00;97876.25;4953652;28;20023;-77
2024/03/08 22:17:25;;;;;;;35.08;13.18;;;;;;;4.97;100.00;97878.03;4945556;29;20126;-77
2024/03/08 22:19:51;;;;;;;28.63;12.68;;;;;;;4.92;100.00;97875.53;4937269;28;20062;-76
2024/03/08 22:22:23;;;;;;;29.60;12.40;;;;;;;5.02;100.00;97878.72;4954044;28;20034;-76
2024/03/08 22:24:53;;;;;;;33.20;13.73;;;;;;;4.97;100.00;97858.63;4955412;28;20038;-75
2024/03/08 22:27:22;;;;;;;33.10;14.40;;;;;;;5.02;100.00;97873.44;4936825;29;20042;-76
2024/03/08 22:29:51;;;;;;;30.10;14.88;;;;;;;5.06;100.00;97874.19;4959058;28;20062;-76
2024/03/08 22:32:17;;;;;;;34.15;15.75;;;;;;;5.00;100.00;97874.41;4951767;29;20031;-75
2024/03/08 22:34:43;;;;;;;36.47;14.73;;;;;;;5.01;100.00;97870.84;4943471;28;20045;-74
2024/03/08 22:37:09;;;;;;;35.85;15.15;;;;;;;5.00;100.00;97869.09;4953838;28;20081;-77
2024/03/08 22:39:35;;;;;;;31.45;14.48;;;;;;;5.08;100.00;97857.31;4952295;29;20491;-76
2024/03/08 22:42:01;;;;;;;32.08;14.27;;;;;;;5.17;100.00;97866.75;4961191;28;20042;-77
2024/03/08 22:44:27;;;;;;;29.42;14.68;;;;;;;5.12;100.00;97852.78;4939549;29;20032;-76
2024/03/08 22:46:52;;;;;;;35.38;16.10;;;;;;;5.20;100.00;97871.94;4946247;28;20093;-76
2024/03/08 22:49:18;;;;;;;36.10;15.35;;;;;;;5.11;100.00;97877.53;4962287;28;20090;-76
2024/03/08 22:51:44;;;;;;;30.50;14.63;;;;;;;5.05;100.00;97865.38;4944935;29;20131;-75
2024/03/08 22:54:12;;;;;;;29.80;14.50;;;;;;;5.07;100.00;97860.91;4936222;28;20060;-76
2024/03/08 22:56:41;;;;;;;29.75;15.18;;;;;;;5.12;100.00;97868.69;4936351;29;20491;-76
2024/03/08 22:59:06;;;;;;;32.72;14.60;;;;;;;5.09;100.00;97864.34;4961041;28;20406;-75
2024/03/08 23:01:33;;;;;;;26.95;13.98;;;;;;;5.01;100.00;97844.34;4940926;28;20027;-75
2024/03/08 23:03:59;;;;;;;29.05;13.70;;;;;;;5.09;100.00;97863.47;4946413;28;20117;-76
2024/03/08 23:06:25;;;;;;;30.20;14.00;;;;;;;5.05;100.00;97861.84;4936170;29;20023;-74
2024/03/08 23:08:51;;;;;;;33.25;14.75;;;;;;;4.96;100.00;97859.53;4953217;28;20027;-74
2024/03/08 23:11:17;;;;;;;37.63;15.98;;;;;;;5.08;100.00;97854.66;4943423;29;20543;-77
2024/03/08 23:13:45;;;;;;;33.97;15.57;;;;;;;5.06;100.00;97847.69;4942341;28;20028;-76
2024/03/08 23:16:12;;;;;;;32.45;14.60;;;;;;;5.13;100.00;97854.50;4947843;28;20027;-75
2024/03/08 23:18:37;;;;;;;30.73;14.85;;;;;;;5.18;100.00;97852.56;4941283;28;20026;-76
2024/03/08 23:21:07;;;;;;;32.90;14.88;;;;;;;5.19;100.00;97838.38;4970142;28;20031;-76
2024/03/08 23:23:34;;;;;;;31.23;14.45;;;;;;;5.08;100.00;97846.72;4940609;28;20039;-76
2024/03/08 23:26:01;;;;;;;30.88;14.48;;;;;;;5.10;100.00;97844.00;4946920;28;20043;-77
2024/03/08 23:28:29;;;;;;;30.50;14.30;;;;;;;5.17;100.00;97850.84;4946854;28;20074;-74
2024/03/08 23:30:55;;;;;;;31.20;14.38;;;;;;;5.15;100.00;97847.34;4943112;28;20031;-75
2024/03/08 23:33:21;;;;;;;30.83;14.43;;;;;;;5.15;100.00;97847.34;4954715;28;20505;-77
2024/03/08 23:35:47;;;;;;;30.27;14.63;;;;;;;5.19;100.00;97849.88;4953920;28;20089;-75
2024/03/08 23:38:13;;;;;;;33.55;13.77;;;;;;;5.15;100.00;97847.34;4950965;28;20034;-75
2024/03/08 23:40:39;;;;;;;30.98;14.90;;;;;;;5.12;100.00;97845.69;4959490;28;20043;-76
2024/03/08 23:43:05;;;;;;;33.22;14.63;;;;;;;5.12;100.00;97839.50;4944645;28;20031;-76
2024/03/08 23:45:31;;;;;;;30.17;14.23;;;;;;;5.18;100.00;97842.81;4974499;28;20026;-76
2024/03/08 23:48:01;;;;;;;28.80;14.05;;;;;;;5.13;100.00;97834.19;4974572;28;20030;-76
2024/03/08 23:50:30;;;;;;;34.97;15.75;;;;;;;5.20;100.00;97838.31;4943591;29;20031;-76
2024/03/08 23:53:00;;;;;;;40.50;16.20;;;;;;;5.18;100.00;97848.13;4950005;28;20037;-77
2024/03/08 23:55:32;;;;;;;34.35;15.88;;;;;;;5.10;100.00;97838.72;4947222;28;20047;-76
2024/03/08 23:58:09;;;;;;;31.42;15.80;;;;;;;5.16;100.00;97838.50;4950076;28;20101;-76
